sensor_id;sensor_type;location;lat;lon;timestamp;P1;durP1;ratioP1;P2;durP2;ratioP2
8058;SDS011;4072;42.668;23.396;2022-08-03T00:01:39;1.30;;;1.20;;
8058;SDS011;4072;42.668;23.396;2022-08-03T00:04:09;1.47;;;1.30;;
8058;SDS011;4072;42.668;23.396;2022-08-03T00:06:37;1.67;;;1.57;;
8058;SDS011;4072;42.668;23.396;2022-08-03T00:09:06;2.80;;;1.37;;
8058;SDS011;4072;42.668;23.396;2022-08-03T00:11:34;1.87;;;1.50;;
8058;SDS011;4072;42.668;23.396;2022-08-03T00:14:03;1.97;;;1.23;;
8058;SDS011;4072;42.668;23.396;2022-08-03T00:16:32;1.60;;;1.50;;
8058;SDS011;4072;42.668;23.396;2022-08-03T00:19:02;1.00;;;1.00;;
8058;SDS011;4072;42.668;23.396;2022-08-03T00:21:30;2.30;;;1.20;;
8058;SDS011;4072;42.668;23.396;2022-08-03T00:23:58;2.00;;;1.40;;
8058;SDS011;4072;42.668;23.396;2022-08-03T00:26:26;1.30;;;1.20;;
8058;SDS011;4072;42.668;23.396;2022-08-03T00:28:55;1.30;;;1.30;;
8058;SDS011;4072;42.668;23.396;2022-08-03T00:31:23;1.60;;;1.50;;
8058;SDS011;4072;42.668;23.396;2022-08-03T00:34:12;1.33;;;1.10;;
8058;SDS011;4072;42.668;23.396;2022-08-03T00:36:40;1.40;;;1.30;;
8058;SDS011;4072;42.668;23.396;2022-08-03T00:39:08;1.47;;;1.37;;
8058;SDS011;4072;42.668;23.396;2022-08-03T00:41:36;1.80;;;1.60;;
8058;SDS011;4072;42.668;23.396;2022-08-03T00:44:04;1.90;;;1.70;;
8058;SDS011;4072;42.668;23.396;2022-08-03T00:46:32;1.73;;;1.63;;
8058;SDS011;4072;42.668;23.396;2022-08-03T00:49:00;1.10;;;1.10;;
8058;SDS011;4072;42.668;23.396;2022-08-03T00:51:30;1.73;;;1.13;;
8058;SDS011;4072;42.668;23.396;2022-08-03T00:53:58;1.60;;;1.50;;
8058;SDS011;4072;42.668;23.396;2022-08-03T00:56:26;2.90;;;1.70;;
8058;SDS011;4072;42.668;23.396;2022-08-03T00:58:54;1.57;;;1.47;;
8058;SDS011;4072;42.668;23.396;2022-08-03T01:01:23;1.60;;;1.50;;
8058;SDS011;4072;42.668;23.396;2022-08-03T01:03:57;1.63;;;1.43;;
8058;SDS011;4072;42.668;23.396;2022-08-03T01:06:28;1.90;;;1.40;;
8058;SDS011;4072;42.668;23.396;2022-08-03T01:09:05;2.23;;;2.00;;
8058;SDS011;4072;42.668;23.396;2022-08-03T01:11:39;6.50;;;4.00;;
8058;SDS011;4072;42.668;23.396;2022-08-03T01:14:33;4.43;;;3.87;;
8058;SDS011;4072;42.668;23.396;2022-08-03T01:17:02;5.33;;;3.43;;
8058;SDS011;4072;42.668;23.396;2022-08-03T01:19:38;4.93;;;4.17;;
8058;SDS011;4072;42.668;23.396;2022-08-03T01:22:12;6.60;;;4.33;;
8058;SDS011;4072;42.668;23.396;2022-08-03T01:24:47;9.73;;;6.23;;
8058;SDS011;4072;42.668;23.396;2022-08-03T01:27:18;5.03;;;4.40;;
8058;SDS011;4072;42.668;23.396;2022-08-03T01:29:55;7.27;;;5.50;;
8058;SDS011;4072;42.668;23.396;2022-08-03T01:32:25;5.97;;;4.80;;
8058;SDS011;4072;42.668;23.396;2022-08-03T01:35:15;8.80;;;5.27;;
8058;SDS011;4072;42.668;23.396;2022-08-03T01:37:46;5.07;;;4.20;;
8058;SDS011;4072;42.668;23.396;2022-08-03T01:40:16;7.73;;;4.97;;
8058;SDS011;4072;42.668;23.396;2022-08-03T01:42:46;6.63;;;4.43;;
8058;SDS011;4072;42.668;23.396;2022-08-03T01:45:15;5.50;;;4.80;;
8058;SDS011;4072;42.668;23.396;2022-08-03T01:47:44;5.07;;;4.40;;
8058;SDS011;4072;42.668;23.396;2022-08-03T01:50:13;5.60;;;4.30;;
8058;SDS011;4072;42.668;23.396;2022-08-03T01:52:43;5.33;;;3.83;;
8058;SDS011;4072;42.668;23.396;2022-08-03T01:55:11;4.77;;;3.73;;
8058;SDS011;4072;42.668;23.396;2022-08-03T01:57:40;5.00;;;4.17;;
8058;SDS011;4072;42.668;23.396;2022-08-03T02:00:31;4.17;;;3.77;;
8058;SDS011;4072;42.668;23.396;2022-08-03T02:02:59;4.27;;;3.80;;
8058;SDS011;4072;42.668;23.396;2022-08-03T02:05:28;4.27;;;3.87;;
8058;SDS011;4072;42.668;23.396;2022-08-03T02:07:58;4.00;;;3.40;;
8058;SDS011;4072;42.668;23.396;2022-08-03T02:10:27;4.17;;;2.67;;
8058;SDS011;4072;42.668;23.396;2022-08-03T02:13:01;4.20;;;2.00;;
8058;SDS011;4072;42.668;23.396;2022-08-03T02:15:31;2.20;;;2.00;;
8058;SDS011;4072;42.668;23.396;2022-08-03T02:17:59;2.00;;;1.90;;
8058;SDS011;4072;42.668;23.396;2022-08-03T02:20:28;2.13;;;1.97;;
8058;SDS011;4072;42.668;23.396;2022-08-03T02:22:58;6.80;;;1.80;;
8058;SDS011;4072;42.668;23.396;2022-08-03T02:25:26;1.90;;;1.70;;
8058;SDS011;4072;42.668;23.396;2022-08-03T02:27:56;2.53;;;1.70;;
8058;SDS011;4072;42.668;23.396;2022-08-03T02:30:26;2.67;;;2.47;;
8058;SDS011;4072;42.668;23.396;2022-08-03T02:32:58;3.00;;;2.07;;
8058;SDS011;4072;42.668;23.396;2022-08-03T02:35:26;1.83;;;1.70;;
8058;SDS011;4072;42.668;23.396;2022-08-03T02:37:58;2.50;;;1.40;;
8058;SDS011;4072;42.668;23.396;2022-08-03T02:40:27;1.70;;;1.60;;
8058;SDS011;4072;42.668;23.396;2022-08-03T02:42:56;2.83;;;1.60;;
8058;SDS011;4072;42.668;23.396;2022-08-03T02:45:25;1.47;;;1.37;;
8058;SDS011;4072;42.668;23.396;2022-08-03T02:47:55;1.30;;;1.20;;
8058;SDS011;4072;42.668;23.396;2022-08-03T02:50:26;3.30;;;1.80;;
8058;SDS011;4072;42.668;23.396;2022-08-03T02:52:55;1.60;;;1.40;;
8058;SDS011;4072;42.668;23.396;2022-08-03T02:55:25;2.80;;;1.50;;
8058;SDS011;4072;42.668;23.396;2022-08-03T02:57:53;2.73;;;1.50;;
8058;SDS011;4072;42.668;23.396;2022-08-03T03:00:26;3.47;;;2.00;;
8058;SDS011;4072;42.668;23.396;2022-08-03T03:02:55;3.23;;;1.60;;
8058;SDS011;4072;42.668;23.396;2022-08-03T03:05:27;2.00;;;1.57;;
8058;SDS011;4072;42.668;23.396;2022-08-03T03:08:17;1.80;;;1.67;;
8058;SDS011;4072;42.668;23.396;2022-08-03T03:10:52;1.80;;;1.47;;
8058;SDS011;4072;42.668;23.396;2022-08-03T03:13:21;3.03;;;2.20;;
8058;SDS011;4072;42.668;23.396;2022-08-03T03:15:50;2.00;;;1.90;;
8058;SDS011;4072;42.668;23.396;2022-08-03T03:18:18;1.80;;;1.70;;
8058;SDS011;4072;42.668;23.396;2022-08-03T03:20:52;2.40;;;1.80;;
8058;SDS011;4072;42.668;23.396;2022-08-03T03:23:20;2.23;;;1.90;;
8058;SDS011;4072;42.668;23.396;2022-08-03T03:25:49;5.17;;;2.17;;
8058;SDS011;4072;42.668;23.396;2022-08-03T03:28:19;3.03;;;1.90;;
8058;SDS011;4072;42.668;23.396;2022-08-03T03:30:49;2.47;;;2.20;;
8058;SDS011;4072;42.668;23.396;2022-08-03T03:33:19;2.30;;;2.10;;
8058;SDS011;4072;42.668;23.396;2022-08-03T03:35:48;2.70;;;2.13;;
8058;SDS011;4072;42.668;23.396;2022-08-03T03:38:18;2.87;;;1.90;;
8058;SDS011;4072;42.668;23.396;2022-08-03T03:40:47;2.77;;;1.60;;
8058;SDS011;4072;42.668;23.396;2022-08-03T03:43:15;2.30;;;2.10;;
8058;SDS011;4072;42.668;23.396;2022-08-03T03:45:44;2.07;;;1.87;;
8058;SDS011;4072;42.668;23.396;2022-08-03T03:48:12;1.97;;;1.80;;
8058;SDS011;4072;42.668;23.396;2022-08-03T03:50:40;2.53;;;2.00;;
8058;SDS011;4072;42.668;23.396;2022-08-03T03:53:10;3.17;;;1.87;;
8058;SDS011;4072;42.668;23.396;2022-08-03T03:55:40;1.80;;;1.70;;
8058;SDS011;4072;42.668;23.396;2022-08-03T03:58:28;1.97;;;1.80;;
8058;SDS011;4072;42.668;23.396;2022-08-03T04:00:56;2.00;;;1.80;;
8058;SDS011;4072;42.668;23.396;2022-08-03T04:03:23;3.33;;;1.93;;
8058;SDS011;4072;42.668;23.396;2022-08-03T04:05:53;3.63;;;2.00;;
8058;SDS011;4072;42.668;23.396;2022-08-03T04:08:38;1.70;;;1.60;;
8058;SDS011;4072;42.668;23.396;2022-08-03T04:11:26;2.47;;;2.00;;
8058;SDS011;4072;42.668;23.396;2022-08-03T04:13:58;2.30;;;2.10;;
8058;SDS011;4072;42.668;23.396;2022-08-03T04:16:28;2.53;;;1.77;;
8058;SDS011;4072;42.668;23.396;2022-08-03T04:18:58;3.73;;;2.03;;
8058;SDS011;4072;42.668;23.396;2022-08-03T04:21:27;2.37;;;1.93;;
8058;SDS011;4072;42.668;23.396;2022-08-03T04:23:58;2.20;;;2.00;;
8058;SDS011;4072;42.668;23.396;2022-08-03T04:26:29;2.70;;;2.50;;
8058;SDS011;4072;42.668;23.396;2022-08-03T04:28:58;3.03;;;2.03;;
8058;SDS011;4072;42.668;23.396;2022-08-03T04:31:27;5.77;;;3.10;;
8058;SDS011;4072;42.668;23.396;2022-08-03T04:33:56;2.20;;;2.00;;
8058;SDS011;4072;42.668;23.396;2022-08-03T04:36:25;3.37;;;1.90;;
8058;SDS011;4072;42.668;23.396;2022-08-03T04:38:54;1.90;;;1.80;;
8058;SDS011;4072;42.668;23.396;2022-08-03T04:41:23;2.90;;;2.50;;
8058;SDS011;4072;42.668;23.396;2022-08-03T04:43:54;2.70;;;2.03;;
8058;SDS011;4072;42.668;23.396;2022-08-03T04:46:25;3.57;;;2.00;;
8058;SDS011;4072;42.668;23.396;2022-08-03T04:48:53;2.97;;;2.17;;
8058;SDS011;4072;42.668;23.396;2022-08-03T04:51:21;4.03;;;2.60;;
8058;SDS011;4072;42.668;23.396;2022-08-03T04:53:50;2.73;;;2.50;;
8058;SDS011;4072;42.668;23.396;2022-08-03T04:56:18;6.73;;;2.87;;
8058;SDS011;4072;42.668;23.396;2022-08-03T04:58:46;5.47;;;2.20;;
8058;SDS011;4072;42.668;23.396;2022-08-03T05:01:15;5.37;;;3.40;;
8058;SDS011;4072;42.668;23.396;2022-08-03T05:03:43;7.40;;;3.27;;
8058;SDS011;4072;42.668;23.396;2022-08-03T05:06:11;7.73;;;3.70;;
8058;SDS011;4072;42.668;23.396;2022-08-03T05:08:41;5.23;;;3.50;;
8058;SDS011;4072;42.668;23.396;2022-08-03T05:11:12;10.73;;;3.70;;
8058;SDS011;4072;42.668;23.396;2022-08-03T05:13:40;5.03;;;3.40;;
8058;SDS011;4072;42.668;23.396;2022-08-03T05:16:08;5.23;;;2.73;;
8058;SDS011;4072;42.668;23.396;2022-08-03T05:18:38;3.80;;;3.33;;
8058;SDS011;4072;42.668;23.396;2022-08-03T05:21:06;5.17;;;2.87;;
8058;SDS011;4072;42.668;23.396;2022-08-03T05:23:34;3.93;;;2.90;;
8058;SDS011;4072;42.668;23.396;2022-08-03T05:26:03;4.93;;;2.70;;
8058;SDS011;4072;42.668;23.396;2022-08-03T05:28:32;3.17;;;2.67;;
8058;SDS011;4072;42.668;23.396;2022-08-03T05:30:59;6.17;;;2.40;;
8058;SDS011;4072;42.668;23.396;2022-08-03T05:33:28;2.03;;;1.93;;
8058;SDS011;4072;42.668;23.396;2022-08-03T05:35:57;2.70;;;2.07;;
8058;SDS011;4072;42.668;23.396;2022-08-03T05:38:29;2.43;;;2.23;;
8058;SDS011;4072;42.668;23.396;2022-08-03T05:41:00;4.65;;;2.80;;
8058;SDS011;4072;42.668;23.396;2022-08-03T05:43:49;3.47;;;3.10;;
8058;SDS011;4072;42.668;23.396;2022-08-03T05:46:18;3.92;;;2.63;;
8058;SDS011;4072;42.668;23.396;2022-08-03T05:48:46;4.00;;;2.63;;
8058;SDS011;4072;42.668;23.396;2022-08-03T05:51:15;3.47;;;2.75;;
8058;SDS011;4072;42.668;23.396;2022-08-03T05:53:45;6.50;;;3.13;;
8058;SDS011;4072;42.668;23.396;2022-08-03T05:56:13;6.10;;;3.50;;
8058;SDS011;4072;42.668;23.396;2022-08-03T05:58:43;7.03;;;3.63;;
8058;SDS011;4072;42.668;23.396;2022-08-03T06:01:11;5.10;;;3.05;;
8058;SDS011;4072;42.668;23.396;2022-08-03T06:03:39;5.72;;;3.22;;
8058;SDS011;4072;42.668;23.396;2022-08-03T06:06:07;7.60;;;4.47;;
8058;SDS011;4072;42.668;23.396;2022-08-03T06:08:38;4.28;;;3.80;;
8058;SDS011;4072;42.668;23.396;2022-08-03T06:11:06;8.13;;;4.10;;
8058;SDS011;4072;42.668;23.396;2022-08-03T06:13:35;4.45;;;4.05;;
8058;SDS011;4072;42.668;23.396;2022-08-03T06:16:03;5.20;;;3.50;;
8058;SDS011;4072;42.668;23.396;2022-08-03T06:18:34;5.20;;;3.63;;
8058;SDS011;4072;42.668;23.396;2022-08-03T06:21:02;5.30;;;3.83;;
8058;SDS011;4072;42.668;23.396;2022-08-03T06:23:43;5.55;;;3.40;;
8058;SDS011;4072;42.668;23.396;2022-08-03T06:26:22;8.40;;;3.50;;
8058;SDS011;4072;42.668;23.396;2022-08-03T06:28:50;3.83;;;3.50;;
8058;SDS011;4072;42.668;23.396;2022-08-03T06:31:20;7.25;;;2.85;;
8058;SDS011;4072;42.668;23.396;2022-08-03T06:33:50;9.25;;;3.30;;
8058;SDS011;4072;42.668;23.396;2022-08-03T06:36:38;4.07;;;2.70;;
8058;SDS011;4072;42.668;23.396;2022-08-03T06:39:07;6.15;;;3.70;;
8058;SDS011;4072;42.668;23.396;2022-08-03T06:41:38;8.35;;;3.88;;
8058;SDS011;4072;42.668;23.396;2022-08-03T06:44:10;3.92;;;2.83;;
8058;SDS011;4072;42.668;23.396;2022-08-03T06:46:38;8.13;;;3.15;;
8058;SDS011;4072;42.668;23.396;2022-08-03T06:49:06;4.65;;;3.33;;
8058;SDS011;4072;42.668;23.396;2022-08-03T06:51:37;6.68;;;3.92;;
8058;SDS011;4072;42.668;23.396;2022-08-03T06:54:26;5.68;;;3.58;;
8058;SDS011;4072;42.668;23.396;2022-08-03T06:56:58;7.53;;;4.50;;
8058;SDS011;4072;42.668;23.396;2022-08-03T06:59:26;7.32;;;3.97;;
8058;SDS011;4072;42.668;23.396;2022-08-03T07:02:16;8.77;;;5.00;;
8058;SDS011;4072;42.668;23.396;2022-08-03T07:04:46;5.55;;;3.25;;
8058;SDS011;4072;42.668;23.396;2022-08-03T07:07:17;6.07;;;3.45;;
8058;SDS011;4072;42.668;23.396;2022-08-03T07:09:47;7.13;;;4.13;;
8058;SDS011;4072;42.668;23.396;2022-08-03T07:12:24;5.72;;;3.88;;
8058;SDS011;4072;42.668;23.396;2022-08-03T07:14:52;5.78;;;3.58;;
8058;SDS011;4072;42.668;23.396;2022-08-03T07:17:25;4.68;;;3.92;;
8058;SDS011;4072;42.668;23.396;2022-08-03T07:19:53;7.70;;;3.97;;
8058;SDS011;4072;42.668;23.396;2022-08-03T07:22:22;4.50;;;3.95;;
8058;SDS011;4072;42.668;23.396;2022-08-03T07:24:53;6.35;;;3.80;;
8058;SDS011;4072;42.668;23.396;2022-08-03T07:27:22;7.30;;;4.25;;
8058;SDS011;4072;42.668;23.396;2022-08-03T07:29:52;8.30;;;4.45;;
8058;SDS011;4072;42.668;23.396;2022-08-03T07:32:20;5.82;;;4.25;;
8058;SDS011;4072;42.668;23.396;2022-08-03T07:34:49;6.35;;;4.05;;
8058;SDS011;4072;42.668;23.396;2022-08-03T07:37:16;6.13;;;4.22;;
8058;SDS011;4072;42.668;23.396;2022-08-03T07:39:44;4.63;;;3.90;;
8058;SDS011;4072;42.668;23.396;2022-08-03T07:42:14;7.15;;;3.38;;
8058;SDS011;4072;42.668;23.396;2022-08-03T07:44:43;4.78;;;2.90;;
8058;SDS011;4072;42.668;23.396;2022-08-03T07:47:11;9.70;;;3.28;;
8058;SDS011;4072;42.668;23.396;2022-08-03T07:49:48;5.55;;;3.13;;
8058;SDS011;4072;42.668;23.396;2022-08-03T07:52:16;3.40;;;3.05;;
8058;SDS011;4072;42.668;23.396;2022-08-03T07:55:01;3.60;;;3.20;;
8058;SDS011;4072;42.668;23.396;2022-08-03T07:57:31;3.67;;;3.00;;
8058;SDS011;4072;42.668;23.396;2022-08-03T07:59:58;6.65;;;3.00;;
8058;SDS011;4072;42.668;23.396;2022-08-03T08:02:28;11.73;;;3.45;;
8058;SDS011;4072;42.668;23.396;2022-08-03T08:04:56;5.97;;;2.92;;
8058;SDS011;4072;42.668;23.396;2022-08-03T08:07:30;4.30;;;3.13;;
8058;SDS011;4072;42.668;23.396;2022-08-03T08:09:58;7.38;;;2.90;;
8058;SDS011;4072;42.668;23.396;2022-08-03T08:12:28;3.20;;;2.90;;
8058;SDS011;4072;42.668;23.396;2022-08-03T08:14:57;4.78;;;2.83;;
8058;SDS011;4072;42.668;23.396;2022-08-03T08:17:25;3.00;;;2.53;;
8058;SDS011;4072;42.668;23.396;2022-08-03T08:19:53;5.75;;;3.03;;
8058;SDS011;4072;42.668;23.396;2022-08-03T08:22:23;3.45;;;2.47;;
8058;SDS011;4072;42.668;23.396;2022-08-03T08:24:57;5.05;;;2.70;;
8058;SDS011;4072;42.668;23.396;2022-08-03T08:27:26;4.75;;;2.35;;
8058;SDS011;4072;42.668;23.396;2022-08-03T08:30:16;3.80;;;2.45;;
8058;SDS011;4072;42.668;23.396;2022-08-03T08:32:45;3.03;;;2.80;;
8058;SDS011;4072;42.668;23.396;2022-08-03T08:35:13;3.05;;;2.30;;
8058;SDS011;4072;42.668;23.396;2022-08-03T08:37:41;2.55;;;2.35;;
8058;SDS011;4072;42.668;23.396;2022-08-03T08:40:16;2.10;;;1.77;;
8058;SDS011;4072;42.668;23.396;2022-08-03T08:42:47;2.72;;;2.35;;
8058;SDS011;4072;42.668;23.396;2022-08-03T08:45:25;5.07;;;2.35;;
8058;SDS011;4072;42.668;23.396;2022-08-03T08:47:54;3.25;;;2.50;;
8058;SDS011;4072;42.668;23.396;2022-08-03T08:50:29;3.58;;;2.40;;
8058;SDS011;4072;42.668;23.396;2022-08-03T08:52:59;5.00;;;3.03;;
8058;SDS011;4072;42.668;23.396;2022-08-03T08:55:28;4.75;;;2.60;;
8058;SDS011;4072;42.668;23.396;2022-08-03T08:58:18;4.63;;;3.55;;
8058;SDS011;4072;42.668;23.396;2022-08-03T09:00:49;4.65;;;3.15;;
8058;SDS011;4072;42.668;23.396;2022-08-03T09:03:17;5.78;;;2.90;;
8058;SDS011;4072;42.668;23.396;2022-08-03T09:05:55;4.93;;;3.55;;
8058;SDS011;4072;42.668;23.396;2022-08-03T09:08:24;4.35;;;3.25;;
8058;SDS011;4072;42.668;23.396;2022-08-03T09:10:52;3.83;;;2.90;;
8058;SDS011;4072;42.668;23.396;2022-08-03T09:13:20;4.07;;;3.05;;
8058;SDS011;4072;42.668;23.396;2022-08-03T09:15:51;4.10;;;2.90;;
8058;SDS011;4072;42.668;23.396;2022-08-03T09:18:35;3.20;;;2.90;;
8058;SDS011;4072;42.668;23.396;2022-08-03T09:21:13;7.88;;;3.55;;
8058;SDS011;4072;42.668;23.396;2022-08-03T09:23:59;2.92;;;2.10;;
8058;SDS011;4072;42.668;23.396;2022-08-03T09:26:30;4.93;;;3.10;;
8058;SDS011;4072;42.668;23.396;2022-08-03T09:28:59;5.15;;;3.00;;
8058;SDS011;4072;42.668;23.396;2022-08-03T09:31:36;4.43;;;2.38;;
8058;SDS011;4072;42.668;23.396;2022-08-03T09:34:09;2.20;;;2.00;;
8058;SDS011;4072;42.668;23.396;2022-08-03T09:36:38;2.83;;;1.52;;
8058;SDS011;4072;42.668;23.396;2022-08-03T09:39:07;2.78;;;1.63;;
8058;SDS011;4072;42.668;23.396;2022-08-03T09:41:37;3.10;;;2.00;;
8058;SDS011;4072;42.668;23.396;2022-08-03T09:44:06;3.08;;;1.90;;
8058;SDS011;4072;42.668;23.396;2022-08-03T09:46:52;5.20;;;2.45;;
8058;SDS011;4072;42.668;23.396;2022-08-03T09:49:21;1.80;;;1.70;;
8058;SDS011;4072;42.668;23.396;2022-08-03T09:51:50;2.42;;;2.22;;
8058;SDS011;4072;42.668;23.396;2022-08-03T09:54:40;2.13;;;1.92;;
8058;SDS011;4072;42.668;23.396;2022-08-03T09:57:19;2.38;;;2.17;;
8058;SDS011;4072;42.668;23.396;2022-08-03T09:59:47;3.15;;;2.85;;
8058;SDS011;4072;42.668;23.396;2022-08-03T10:02:23;3.78;;;3.03;;
8058;SDS011;4072;42.668;23.396;2022-08-03T10:04:52;2.38;;;1.80;;
8058;SDS011;4072;42.668;23.396;2022-08-03T10:07:20;4.72;;;2.75;;
8058;SDS011;4072;42.668;23.396;2022-08-03T10:09:53;2.47;;;2.28;;
8058;SDS011;4072;42.668;23.396;2022-08-03T10:12:21;1.85;;;1.75;;
8058;SDS011;4072;42.668;23.396;2022-08-03T10:14:52;1.92;;;1.83;;
8058;SDS011;4072;42.668;23.396;2022-08-03T10:17:21;2.30;;;2.10;;
8058;SDS011;4072;42.668;23.396;2022-08-03T10:19:50;1.83;;;1.63;;
8058;SDS011;4072;42.668;23.396;2022-08-03T10:22:18;2.25;;;2.05;;
8058;SDS011;4072;42.668;23.396;2022-08-03T10:24:51;1.88;;;1.50;;
8058;SDS011;4072;42.668;23.396;2022-08-03T10:27:21;3.35;;;1.70;;
8058;SDS011;4072;42.668;23.396;2022-08-03T10:29:50;1.60;;;1.50;;
8058;SDS011;4072;42.668;23.396;2022-08-03T10:32:21;1.63;;;1.52;;
8058;SDS011;4072;42.668;23.396;2022-08-03T10:34:51;2.88;;;1.50;;
8058;SDS011;4072;42.668;23.396;2022-08-03T10:37:29;2.70;;;2.50;;
8058;SDS011;4072;42.668;23.396;2022-08-03T10:39:59;1.70;;;1.60;;
8058;SDS011;4072;42.668;23.396;2022-08-03T10:42:28;4.28;;;2.00;;
8058;SDS011;4072;42.668;23.396;2022-08-03T10:45:00;2.30;;;1.70;;
8058;SDS011;4072;42.668;23.396;2022-08-03T10:47:30;7.75;;;2.30;;
8058;SDS011;4072;42.668;23.396;2022-08-03T10:50:00;2.78;;;2.10;;
8058;SDS011;4072;42.668;23.396;2022-08-03T10:52:28;2.30;;;2.10;;
8058;SDS011;4072;42.668;23.396;2022-08-03T10:58:10;2.65;;;2.00;;
8058;SDS011;4072;42.668;23.396;2022-08-03T11:00:55;1.95;;;1.83;;
8058;SDS011;4072;42.668;23.396;2022-08-03T11:03:25;3.47;;;1.67;;
8058;SDS011;4072;42.668;23.396;2022-08-03T11:06:12;1.80;;;1.70;;
8058;SDS011;4072;42.668;23.396;2022-08-03T11:08:43;2.05;;;1.95;;
8058;SDS011;4072;42.668;23.396;2022-08-03T11:11:24;2.13;;;1.92;;
8058;SDS011;4072;42.668;23.396;2022-08-03T11:13:57;3.30;;;1.88;;
8058;SDS011;4072;42.668;23.396;2022-08-03T11:16:26;1.90;;;1.75;;
8058;SDS011;4072;42.668;23.396;2022-08-03T11:18:55;1.70;;;1.60;;
8058;SDS011;4072;42.668;23.396;2022-08-03T11:24:07;3.05;;;1.80;;
8058;SDS011;4072;42.668;23.396;2022-08-03T11:26:35;4.00;;;2.10;;
8058;SDS011;4072;42.668;23.396;2022-08-03T11:31:50;1.90;;;1.80;;
8058;SDS011;4072;42.668;23.396;2022-08-03T11:34:18;3.70;;;1.90;;
8058;SDS011;4072;42.668;23.396;2022-08-03T11:39:40;2.00;;;1.90;;
8058;SDS011;4072;42.668;23.396;2022-08-03T11:44:53;1.85;;;1.52;;
8058;SDS011;4072;42.668;23.396;2022-08-03T11:47:22;2.00;;;1.73;;
8058;SDS011;4072;42.668;23.396;2022-08-03T11:49:53;4.40;;;1.65;;
8058;SDS011;4072;42.668;23.396;2022-08-03T11:52:21;2.35;;;1.73;;
8058;SDS011;4072;42.668;23.396;2022-08-03T11:54:55;2.78;;;1.60;;
8058;SDS011;4072;42.668;23.396;2022-08-03T11:57:27;2.47;;;1.75;;
8058;SDS011;4072;42.668;23.396;2022-08-03T12:00:22;2.35;;;1.80;;
8058;SDS011;4072;42.668;23.396;2022-08-03T12:02:58;1.77;;;1.58;;
8058;SDS011;4072;42.668;23.396;2022-08-03T12:05:33;2.15;;;1.95;;
8058;SDS011;4072;42.668;23.396;2022-08-03T12:08:02;2.83;;;2.33;;
8058;SDS011;4072;42.668;23.396;2022-08-03T12:10:39;3.97;;;2.13;;
8058;SDS011;4072;42.668;23.396;2022-08-03T12:13:07;3.50;;;2.13;;
8058;SDS011;4072;42.668;23.396;2022-08-03T12:15:55;4.35;;;1.90;;
8058;SDS011;4072;42.668;23.396;2022-08-03T12:18:24;2.30;;;2.13;;
8058;SDS011;4072;42.668;23.396;2022-08-03T12:20:52;1.92;;;1.83;;
8058;SDS011;4072;42.668;23.396;2022-08-03T12:23:29;2.10;;;1.90;;
8058;SDS011;4072;42.668;23.396;2022-08-03T12:26:05;3.35;;;1.90;;
8058;SDS011;4072;42.668;23.396;2022-08-03T12:28:34;3.17;;;2.05;;
8058;SDS011;4072;42.668;23.396;2022-08-03T12:31:09;2.17;;;2.08;;
8058;SDS011;4072;42.668;23.396;2022-08-03T12:33:57;3.53;;;2.00;;
8058;SDS011;4072;42.668;23.396;2022-08-03T12:36:27;2.40;;;2.10;;
8058;SDS011;4072;42.668;23.396;2022-08-03T12:38:56;1.60;;;1.50;;
8058;SDS011;4072;42.668;23.396;2022-08-03T12:41:31;3.38;;;1.83;;
8058;SDS011;4072;42.668;23.396;2022-08-03T12:43:59;2.03;;;1.85;;
8058;SDS011;4072;42.668;23.396;2022-08-03T12:46:31;1.92;;;1.80;;
8058;SDS011;4072;42.668;23.396;2022-08-03T12:49:05;1.92;;;1.73;;
8058;SDS011;4072;42.668;23.396;2022-08-03T12:51:34;2.67;;;1.83;;
8058;SDS011;4072;42.668;23.396;2022-08-03T12:54:04;3.60;;;1.98;;
8058;SDS011;4072;42.668;23.396;2022-08-03T12:56:33;2.92;;;2.10;;
8058;SDS011;4072;42.668;23.396;2022-08-03T13:01:44;2.33;;;2.13;;
8058;SDS011;4072;42.668;23.396;2022-08-03T13:04:30;2.78;;;1.98;;
8058;SDS011;4072;42.668;23.396;2022-08-03T13:06:59;2.13;;;1.95;;
8058;SDS011;4072;42.668;23.396;2022-08-03T13:09:29;2.00;;;1.90;;
8058;SDS011;4072;42.668;23.396;2022-08-03T13:12:05;3.70;;;2.05;;
8058;SDS011;4072;42.668;23.396;2022-08-03T13:14:35;2.25;;;2.05;;
8058;SDS011;4072;42.668;23.396;2022-08-03T13:17:04;2.30;;;2.10;;
8058;SDS011;4072;42.668;23.396;2022-08-03T13:19:32;2.60;;;2.30;;
8058;SDS011;4072;42.668;23.396;2022-08-03T13:22:01;4.97;;;2.22;;
8058;SDS011;4072;42.668;23.396;2022-08-03T13:24:37;2.53;;;2.25;;
8058;SDS011;4072;42.668;23.396;2022-08-03T13:27:08;3.65;;;1.90;;
8058;SDS011;4072;42.668;23.396;2022-08-03T13:29:57;2.30;;;2.10;;
8058;SDS011;4072;42.668;23.396;2022-08-03T13:32:25;3.47;;;2.53;;
8058;SDS011;4072;42.668;23.396;2022-08-03T13:34:53;6.55;;;3.53;;
8058;SDS011;4072;42.668;23.396;2022-08-03T13:37:21;5.15;;;3.40;;
8058;SDS011;4072;42.668;23.396;2022-08-03T13:39:52;5.57;;;4.22;;
8058;SDS011;4072;42.668;23.396;2022-08-03T13:42:28;5.32;;;3.60;;
8058;SDS011;4072;42.668;23.396;2022-08-03T13:44:56;5.25;;;3.22;;
8058;SDS011;4072;42.668;23.396;2022-08-03T13:47:24;6.10;;;2.88;;
8058;SDS011;4072;42.668;23.396;2022-08-03T13:49:52;3.20;;;2.10;;
8058;SDS011;4072;42.668;23.396;2022-08-03T13:52:28;3.35;;;2.08;;
8058;SDS011;4072;42.668;23.396;2022-08-03T13:54:56;5.63;;;2.38;;
8058;SDS011;4072;42.668;23.396;2022-08-03T13:57:24;3.35;;;2.17;;
8058;SDS011;4072;42.668;23.396;2022-08-03T14:00:14;2.63;;;2.42;;
8058;SDS011;4072;42.668;23.396;2022-08-03T14:02:53;2.83;;;2.25;;
8058;SDS011;4072;42.668;23.396;2022-08-03T14:05:30;4.43;;;2.70;;
8058;SDS011;4072;42.668;23.396;2022-08-03T14:07:59;4.35;;;2.05;;
8058;SDS011;4072;42.668;23.396;2022-08-03T14:10:32;3.33;;;2.10;;
8058;SDS011;4072;42.668;23.396;2022-08-03T14:13:00;2.28;;;2.08;;
8058;SDS011;4072;42.668;23.396;2022-08-03T14:15:30;2.47;;;2.13;;
8058;SDS011;4072;42.668;23.396;2022-08-03T14:18:03;3.10;;;2.50;;
8058;SDS011;4072;42.668;23.396;2022-08-03T14:20:31;4.00;;;2.58;;
8058;SDS011;4072;42.668;23.396;2022-08-03T14:23:14;2.33;;;2.13;;
8058;SDS011;4072;42.668;23.396;2022-08-03T14:25:43;3.15;;;2.63;;
8058;SDS011;4072;42.668;23.396;2022-08-03T14:28:18;2.97;;;2.47;;
8058;SDS011;4072;42.668;23.396;2022-08-03T14:30:48;3.63;;;2.20;;
8058;SDS011;4072;42.668;23.396;2022-08-03T14:33:16;3.55;;;2.50;;
8058;SDS011;4072;42.668;23.396;2022-08-03T14:35:44;2.72;;;2.03;;
8058;SDS011;4072;42.668;23.396;2022-08-03T14:38:13;2.88;;;2.60;;
8058;SDS011;4072;42.668;23.396;2022-08-03T14:40:41;4.65;;;2.15;;
8058;SDS011;4072;42.668;23.396;2022-08-03T14:43:11;3.78;;;2.20;;
8058;SDS011;4072;42.668;23.396;2022-08-03T14:45:39;2.58;;;2.38;;
8058;SDS011;4072;42.668;23.396;2022-08-03T14:48:08;2.85;;;2.28;;
8058;SDS011;4072;42.668;23.396;2022-08-03T14:50:58;2.70;;;2.50;;
8058;SDS011;4072;42.668;23.396;2022-08-03T14:53:25;2.53;;;2.40;;
8058;SDS011;4072;42.668;23.396;2022-08-03T14:55:54;2.83;;;2.28;;
8058;SDS011;4072;42.668;23.396;2022-08-03T14:58:23;2.65;;;2.45;;
8058;SDS011;4072;42.668;23.396;2022-08-03T15:00:52;5.47;;;3.40;;
8058;SDS011;4072;42.668;23.396;2022-08-03T15:03:22;3.13;;;2.25;;
8058;SDS011;4072;42.668;23.396;2022-08-03T15:05:50;4.65;;;3.10;;
8058;SDS011;4072;42.668;23.396;2022-08-03T15:08:18;6.72;;;3.90;;
8058;SDS011;4072;42.668;23.396;2022-08-03T15:10:47;4.80;;;3.10;;
8058;SDS011;4072;42.668;23.396;2022-08-03T15:13:16;1.90;;;1.80;;
8058;SDS011;4072;42.668;23.396;2022-08-03T15:15:45;4.03;;;3.03;;
8058;SDS011;4072;42.668;23.396;2022-08-03T15:18:14;2.60;;;2.40;;
8058;SDS011;4072;42.668;23.396;2022-08-03T15:20:43;2.70;;;2.50;;
8058;SDS011;4072;42.668;23.396;2022-08-03T15:23:12;5.47;;;2.60;;
8058;SDS011;4072;42.668;23.396;2022-08-03T15:25:41;4.50;;;3.63;;
8058;SDS011;4072;42.668;23.396;2022-08-03T15:28:30;4.73;;;3.17;;
8058;SDS011;4072;42.668;23.396;2022-08-03T15:30:58;3.93;;;3.53;;
8058;SDS011;4072;42.668;23.396;2022-08-03T15:33:27;5.53;;;4.83;;
8058;SDS011;4072;42.668;23.396;2022-08-03T15:35:57;6.07;;;5.37;;
8058;SDS011;4072;42.668;23.396;2022-08-03T15:38:25;6.53;;;5.43;;
8058;SDS011;4072;42.668;23.396;2022-08-03T15:40:53;6.97;;;5.13;;
8058;SDS011;4072;42.668;23.396;2022-08-03T15:43:22;5.53;;;5.03;;